This is the latest recevied weather packets stored in our database for station/object DM3FAM-13. If no packets are shown the sender has not sent any weather packets the latest 10 day(s).
| Time | Temp. | Humidity | Pressure | Rain* | Wind** | Luminosity | Snow |
|---|---|---|---|---|---|---|---|
| 1777397430 | 16.67° C | 75% | 1015.4 hPa | 0 mm | - | 30 W/m² | - |
| 1777396830 | 17.22° C | 75% | 1015.2 hPa | 0 mm | - | 36 W/m² | - |
| 1777396229 | 17.78° C | 71% | 1015.3 hPa | 0 mm | - | 44 W/m² | - |
| 1777392630 | 19.44° C | 54% | 1015.2 hPa | 0 mm | - | 78 W/m² | - |
| 1777392031 | 19.44° C | 52% | 1015.2 hPa | 0 mm | - | 85 W/m² | - |
| 1777390230 | 19.44° C | 51% | 1015 hPa | 0 mm | - | 113 W/m² | - |
| 1777389030 | 19.44° C | 52% | 1015.1 hPa | 0 mm | - | 126 W/m² | - |
| 1777388431 | 19.44° C | 51% | 1015.1 hPa | 0 mm | - | 133 W/m² | - |
| 1777387831 | 19.44° C | 51% | 1015.1 hPa | 0 mm | - | 140 W/m² | - |
| 1777387231 | 20° C | 52% | 1015.1 hPa | 0 mm | - | 142 W/m² | - |
| 1777386631 | 20° C | 51% | 1015.1 hPa | 0 mm | - | 147 W/m² | - |
| 1777385430 | 20.56° C | 50% | 1015.1 hPa | 0 mm | - | 192 W/m² | - |
| 1777384832 | 20.56° C | 52% | 1015.2 hPa | 0 mm | - | 214 W/m² | - |
| 1777384231 | 20.56° C | 51% | 1015.1 hPa | 0 mm | - | 233 W/m² | - |
| 1777383631 | 20.56° C | 51% | 1015.2 hPa | 0 mm | - | 237 W/m² | - |
| 1777383031 | 20.56° C | 51% | 1015.1 hPa | 0 mm | - | 222 W/m² | - |
| 1777382431 | 20.56° C | 50% | 1015.1 hPa | 0 mm | - | 219 W/m² | - |
| 1777381830 | 21.11° C | 48% | 1015.2 hPa | 0 mm | - | 221 W/m² | - |
| 1777380631 | 20.56° C | 44% | 1015.2 hPa | 0 mm | - | 326 W/m² | - |
| 1777378830 | 20.56° C | 48% | 1015.3 hPa | 0 mm | - | 331 W/m² | - |
| 1777378230 | 20.56° C | 47% | 1015.3 hPa | 0 mm | - | 453 W/m² | - |
| 1777377030 | 20° C | 48% | 1015.3 hPa | 0 mm | - | 490 W/m² | - |
| 1777374630 | 18.33° C | 51% | 1015.6 hPa | 0 mm | - | 328 W/m² | - |
| 1777374030 | 18.33° C | 52% | 1015.5 hPa | 0 mm | - | 412 W/m² | - |
| 1777373431 | 17.78° C | 54% | 1015.5 hPa | 0 mm | - | 345 W/m² | - |
* Rain latest hour (hover to see other rain measurements)
** Current wind speed in m/s (hover to see current wind gust speed)